createdAt,value
2022-08-01T00:01:12.194Z,21.97
2022-08-01T00:03:38.449Z,21.96
2022-08-01T00:06:04.653Z,21.94
2022-08-01T00:08:30.949Z,21.91
2022-08-01T00:11:00.335Z,21.81
2022-08-01T00:13:28.710Z,21.76
2022-08-01T00:15:54.918Z,21.74
2022-08-01T00:18:21.125Z,21.70
2022-08-01T00:20:47.350Z,21.67
2022-08-01T00:23:13.555Z,21.65
2022-08-01T00:25:39.727Z,21.63
2022-08-01T00:28:05.939Z,21.58
2022-08-01T00:30:32.152Z,21.55
2022-08-01T00:32:58.331Z,21.54
2022-08-01T00:35:24.548Z,21.52
2022-08-01T00:37:50.758Z,21.51
2022-08-01T00:40:16.977Z,21.51
2022-08-01T00:42:43.871Z,21.48
2022-08-01T00:45:10.305Z,21.45
2022-08-01T00:47:36.523Z,21.45
2022-08-01T00:50:02.709Z,21.46
2022-08-01T00:52:28.928Z,21.45
2022-08-01T00:54:55.173Z,21.45
2022-08-01T00:58:01.737Z,21.47
2022-08-01T01:00:07.587Z,21.49
2022-08-01T01:02:33.784Z,21.48
2022-08-01T01:04:59.997Z,21.47
2022-08-01T01:07:26.179Z,21.50
2022-08-01T01:09:52.411Z,21.52
2022-08-01T01:12:18.657Z,21.51
2022-08-01T01:14:44.911Z,21.50
2022-08-01T01:17:11.119Z,21.50
2022-08-01T01:19:37.298Z,21.47
2022-08-01T01:22:03.840Z,21.47
2022-08-01T01:24:30.183Z,21.46
2022-08-01T01:26:56.412Z,21.47
2022-08-01T01:29:22.587Z,21.46
2022-08-01T01:31:48.879Z,21.44
2022-08-01T01:34:15.149Z,21.41
2022-08-01T01:36:41.350Z,21.40
2022-08-01T01:39:07.596Z,21.37
2022-08-01T01:41:33.814Z,21.34
2022-08-01T01:44:00.035Z,21.33
2022-08-01T01:46:26.246Z,21.29
2022-08-01T01:48:52.492Z,21.26
2022-08-01T01:51:18.744Z,21.24
2022-08-01T01:53:44.962Z,21.22
2022-08-01T01:56:11.151Z,21.18
2022-08-01T01:58:37.336Z,21.16
2022-08-01T02:01:03.800Z,21.15
2022-08-01T02:03:30.030Z,21.13
2022-08-01T02:05:56.281Z,21.11
2022-08-01T02:08:22.489Z,21.09
2022-08-01T02:10:49.011Z,21.08
2022-08-01T02:13:15.226Z,21.07
2022-08-01T02:15:59.875Z,21.03
2022-08-01T02:18:26.729Z,21.03
2022-08-01T02:20:53.097Z,21.01
2022-08-01T02:23:20.024Z,21.00
2022-08-01T02:26:10.938Z,20.99
2022-08-01T02:28:32.426Z,20.97
2022-08-01T02:30:58.622Z,20.97
2022-08-01T02:33:24.814Z,20.96
2022-08-01T02:36:30.095Z,20.95
2022-08-01T02:38:37.236Z,20.93
2022-08-01T02:41:03.472Z,20.94
2022-08-01T02:43:29.653Z,20.94
2022-08-01T02:45:55.816Z,20.95
2022-08-01T02:48:22.071Z,20.95
2022-08-01T02:50:48.254Z,20.96
2022-08-01T02:53:14.464Z,20.97
2022-08-01T02:55:40.666Z,20.97
2022-08-01T02:58:06.889Z,20.98
2022-08-01T03:00:33.089Z,20.98
2022-08-01T03:02:59.299Z,21.00
2022-08-01T03:05:25.505Z,21.00
2022-08-01T03:07:51.733Z,21.00
2022-08-01T03:10:19.054Z,20.99
2022-08-01T03:12:45.264Z,20.98
2022-08-01T03:15:13.198Z,20.97
2022-08-01T03:17:39.388Z,20.96
2022-08-01T03:20:05.626Z,20.96
2022-08-01T03:22:31.811Z,20.96
2022-08-01T03:24:58.003Z,20.93
2022-08-01T03:27:24.221Z,20.92
2022-08-01T03:29:50.418Z,20.92
2022-08-01T03:32:16.691Z,20.92
2022-08-01T03:34:42.895Z,20.92
2022-08-01T03:37:09.123Z,20.94
2022-08-01T03:39:35.345Z,20.95
2022-08-01T03:42:01.577Z,20.95
2022-08-01T03:44:27.768Z,20.95
2022-08-01T03:46:54.041Z,20.94
2022-08-01T03:49:20.244Z,20.93
2022-08-01T03:51:46.441Z,20.93
2022-08-01T03:54:12.682Z,20.93
2022-08-01T03:56:38.887Z,20.94
2022-08-01T03:59:05.112Z,20.95
2022-08-01T04:01:31.384Z,20.92
2022-08-01T04:03:57.609Z,20.93
2022-08-01T04:06:23.801Z,20.94
2022-08-01T04:08:49.992Z,20.95
2022-08-01T04:11:16.194Z,20.94
2022-08-01T04:13:44.400Z,20.91
2022-08-01T04:16:10.819Z,20.90
2022-08-01T04:18:37.030Z,20.90
2022-08-01T04:21:03.294Z,20.89
2022-08-01T04:23:29.490Z,20.89
2022-08-01T04:25:55.727Z,20.87
2022-08-01T04:28:21.937Z,20.88
2022-08-01T04:30:48.170Z,20.90
2022-08-01T04:33:14.379Z,20.91
2022-08-01T04:36:04.171Z,20.87
2022-08-01T04:38:26.762Z,20.85
2022-08-01T04:40:52.963Z,20.85
2022-08-01T04:43:19.179Z,20.85
2022-08-01T04:45:45.386Z,20.84
2022-08-01T04:48:11.609Z,20.84
2022-08-01T04:50:37.785Z,20.84
2022-08-01T04:53:05.094Z,20.85
2022-08-01T04:55:31.316Z,20.86
2022-08-01T04:57:57.518Z,20.86
2022-08-01T05:00:23.748Z,20.84
2022-08-01T05:02:49.941Z,20.82
2022-08-01T05:05:17.597Z,20.85
2022-08-01T05:07:45.480Z,20.89
2022-08-01T05:10:12.011Z,20.91
2022-08-01T05:12:38.190Z,20.95
2022-08-01T05:15:04.437Z,20.98
2022-08-01T05:17:30.621Z,21.01
2022-08-01T05:19:56.796Z,21.03
2022-08-01T05:22:23.016Z,21.05
2022-08-01T05:24:49.353Z,21.07
2022-08-01T05:27:16.358Z,21.06
2022-08-01T05:29:44.865Z,21.07
2022-08-01T05:32:11.279Z,21.08
2022-08-01T05:34:37.495Z,21.08
2022-08-01T05:37:03.709Z,21.07
2022-08-01T05:39:29.911Z,21.08
2022-08-01T05:41:56.125Z,21.08
2022-08-01T05:44:22.354Z,21.07
2022-08-01T05:46:48.530Z,21.09
2022-08-01T05:49:14.788Z,21.10
2022-08-01T05:51:41.067Z,21.10
2022-08-01T05:54:07.322Z,21.14
2022-08-01T05:56:33.601Z,21.17
2022-08-01T05:58:59.798Z,21.22
2022-08-01T06:01:26.020Z,21.27
2022-08-01T06:03:52.283Z,21.30
2022-08-01T06:06:18.478Z,21.34
2022-08-01T06:08:51.585Z,21.37
2022-08-01T06:11:17.968Z,21.38
2022-08-01T06:13:48.360Z,21.41
2022-08-01T06:16:15.193Z,21.43
2022-08-01T06:18:41.373Z,21.45
2022-08-01T06:21:07.591Z,21.48
2022-08-01T06:23:33.790Z,21.51
2022-08-01T06:25:59.996Z,21.53
2022-08-01T06:28:26.221Z,21.59
2022-08-01T06:30:52.443Z,21.67
2022-08-01T06:33:18.627Z,21.74
2022-08-01T06:35:44.874Z,21.75
2022-08-01T06:38:11.067Z,21.74
2022-08-01T06:40:37.312Z,21.74
2022-08-01T06:43:03.541Z,21.73
2022-08-01T06:45:29.713Z,21.77
2022-08-01T06:47:55.913Z,21.85
2022-08-01T06:50:22.101Z,21.96
2022-08-01T06:52:48.358Z,22.07
2022-08-01T06:55:14.556Z,22.20
2022-08-01T06:57:40.753Z,22.25
2022-08-01T07:00:06.957Z,22.26
2022-08-01T07:02:33.204Z,22.27
2022-08-01T07:04:59.428Z,22.30
2022-08-01T07:07:25.659Z,22.33
2022-08-01T07:09:53.120Z,22.36
2022-08-01T07:12:19.509Z,22.40
2022-08-01T07:14:45.692Z,22.41
2022-08-01T07:17:11.922Z,22.44
2022-08-01T07:19:38.526Z,22.44
2022-08-01T07:22:05.098Z,22.40
2022-08-01T07:24:31.900Z,22.37
2022-08-01T07:26:58.090Z,22.36
2022-08-01T07:29:25.104Z,22.35
2022-08-01T07:31:51.342Z,22.38
2022-08-01T07:34:17.550Z,22.40
2022-08-01T07:36:43.762Z,22.45
2022-08-01T07:39:09.983Z,22.47
2022-08-01T07:42:04.644Z,22.44
2022-08-01T07:44:22.551Z,22.42
2022-08-01T07:46:48.854Z,22.42
2022-08-01T07:49:15.126Z,22.42
2022-08-01T07:51:41.484Z,22.41
2022-08-01T07:54:07.710Z,22.47
2022-08-01T07:56:33.898Z,22.52
2022-08-01T07:59:00.137Z,22.54
2022-08-01T08:01:26.394Z,22.59
2022-08-01T08:03:52.652Z,22.68
2022-08-01T08:06:18.844Z,22.76
2022-08-01T08:08:45.054Z,22.81
2022-08-01T08:11:11.237Z,22.72
2022-08-01T08:13:37.446Z,22.70
2022-08-01T08:16:03.657Z,22.70
2022-08-01T08:18:29.862Z,22.77
2022-08-01T08:20:56.056Z,22.91
2022-08-01T08:23:41.421Z,23.06
2022-08-01T08:26:08.499Z,23.22
2022-08-01T08:28:34.849Z,23.28
2022-08-01T08:31:01.042Z,23.25
2022-08-01T08:33:28.036Z,23.17
2022-08-01T08:35:54.496Z,23.08
2022-08-01T08:38:20.710Z,23.04
2022-08-01T08:40:54.870Z,23.03
2022-08-01T08:43:21.054Z,23.02
2022-08-01T08:45:58.104Z,23.02
2022-08-01T08:48:27.726Z,23.00
2022-08-01T08:50:54.336Z,22.96
2022-08-01T08:53:20.552Z,22.99
2022-08-01T08:55:55.445Z,23.08
2022-08-01T08:58:26.299Z,23.15
2022-08-01T09:00:57.670Z,23.22
2022-08-01T09:03:24.070Z,23.26
2022-08-01T09:05:50.350Z,23.30
2022-08-01T09:08:16.587Z,23.36
2022-08-01T09:10:42.807Z,23.36
2022-08-01T09:13:09.029Z,23.38
2022-08-01T09:15:35.246Z,23.37
2022-08-01T09:18:01.448Z,23.34
2022-08-01T09:20:27.673Z,23.30
2022-08-01T09:22:53.855Z,23.25
2022-08-01T09:25:20.174Z,23.26
2022-08-01T09:27:46.664Z,23.24
2022-08-01T09:30:12.978Z,23.25
2022-08-01T09:32:39.285Z,23.29
2022-08-01T09:35:05.964Z,23.31
2022-08-01T09:37:38.276Z,23.34
2022-08-01T09:40:13.461Z,23.36
2022-08-01T09:42:39.682Z,23.35
2022-08-01T09:45:07.321Z,23.32
2022-08-01T09:47:33.654Z,23.27
2022-08-01T09:50:00.037Z,23.21
2022-08-01T09:52:29.322Z,23.21
2022-08-01T09:54:55.771Z,23.23
2022-08-01T09:57:22.259Z,23.28
2022-08-01T09:59:58.240Z,23.36
2022-08-01T10:02:25.239Z,23.49
2022-08-01T10:04:55.806Z,23.59
2022-08-01T10:07:27.689Z,23.61
2022-08-01T10:10:08.875Z,23.66
2022-08-01T10:12:37.699Z,23.68
2022-08-01T10:15:03.883Z,23.68
2022-08-01T10:17:51.132Z,23.68
2022-08-01T10:20:28.919Z,23.68
2022-08-01T10:22:56.257Z,23.68
2022-08-01T10:25:42.850Z,23.77
2022-08-01T10:28:08.667Z,23.84
2022-08-01T10:30:35.067Z,23.88
2022-08-01T10:33:01.318Z,23.96
2022-08-01T10:35:46.784Z,24.02
2022-08-01T10:38:14.131Z,24.08
2022-08-01T10:40:40.431Z,24.20
2022-08-01T10:43:06.799Z,24.33
2022-08-01T10:45:33.047Z,24.34
2022-08-01T10:47:59.237Z,24.32
2022-08-01T10:50:26.083Z,24.32
2022-08-01T10:52:52.429Z,24.31
2022-08-01T10:55:18.724Z,24.27
2022-08-01T10:57:48.870Z,24.16
2022-08-01T11:00:19.333Z,24.01
2022-08-01T11:02:45.767Z,23.86
2022-08-01T11:05:14.298Z,23.72
2022-08-01T11:07:40.723Z,23.71
2022-08-01T11:10:14.700Z,23.68
2022-08-01T11:12:41.322Z,23.65
2022-08-01T11:15:10.307Z,23.64
2022-08-01T11:17:38.086Z,23.62
2022-08-01T11:20:08.205Z,23.62
2022-08-01T11:22:34.624Z,23.61
2022-08-01T11:25:01.254Z,23.64
2022-08-01T11:27:27.614Z,23.67
2022-08-01T11:29:57.706Z,23.73
2022-08-01T11:32:23.925Z,23.63
2022-08-01T11:34:50.160Z,23.66
2022-08-01T11:37:16.366Z,23.69
2022-08-01T11:39:42.623Z,23.73
2022-08-01T11:42:09.242Z,23.73
2022-08-01T11:44:35.544Z,23.81
2022-08-01T11:47:01.870Z,23.86
2022-08-01T11:49:29.281Z,23.97
2022-08-01T11:51:55.869Z,24.06
2022-08-01T11:54:35.063Z,24.27
2022-08-01T11:57:02.199Z,24.43
2022-08-01T11:59:34.007Z,24.59
2022-08-01T12:02:07.369Z,24.76
2022-08-01T12:04:33.946Z,24.85
2022-08-01T12:07:00.451Z,24.93
2022-08-01T12:09:26.670Z,25.09
2022-08-01T12:11:52.881Z,25.31
2022-08-01T12:14:19.090Z,25.54
2022-08-01T12:16:45.309Z,25.76
2022-08-01T12:19:11.612Z,25.85
2022-08-01T12:21:38.057Z,25.95
2022-08-01T12:24:04.264Z,26.05
2022-08-01T12:26:31.936Z,26.13
2022-08-01T12:28:58.661Z,26.08
2022-08-01T12:31:24.894Z,26.05
2022-08-01T12:33:51.197Z,26.03
2022-08-01T12:36:17.419Z,26.01
2022-08-01T12:38:43.684Z,25.96
2022-08-01T12:41:09.898Z,25.87
2022-08-01T12:43:36.797Z,25.78
2022-08-01T12:46:03.163Z,25.65
2022-08-01T12:48:29.488Z,25.59
2022-08-01T12:50:55.816Z,25.59
2022-08-01T12:53:22.525Z,25.56
2022-08-01T12:55:58.321Z,25.51
2022-08-01T12:58:26.219Z,25.57
2022-08-01T13:00:52.485Z,25.64
2022-08-01T13:03:18.806Z,25.82
2022-08-01T13:05:44.998Z,26.03
2022-08-01T13:08:11.200Z,26.30
2022-08-01T13:10:37.437Z,26.31
2022-08-01T13:13:03.617Z,26.28
2022-08-01T13:15:29.873Z,26.29
2022-08-01T13:17:56.131Z,26.24
2022-08-01T13:20:22.434Z,26.23
2022-08-01T13:22:48.735Z,26.22
2022-08-01T13:25:16.088Z,26.11
2022-08-01T13:27:53.735Z,26.09
2022-08-01T13:30:20.384Z,26.13
2022-08-01T13:32:46.615Z,26.18
2022-08-01T13:35:12.866Z,26.22
2022-08-01T13:37:39.417Z,26.21
2022-08-01T13:40:05.845Z,26.21
2022-08-01T13:42:32.122Z,26.24
2022-08-01T13:44:58.345Z,26.18
2022-08-01T13:47:31.023Z,26.17
2022-08-01T13:49:58.376Z,26.19
2022-08-01T13:52:24.773Z,26.22
2022-08-01T13:54:50.968Z,26.22
2022-08-01T13:57:17.230Z,26.17
2022-08-01T13:59:43.493Z,26.27
2022-08-01T14:02:09.823Z,26.47
2022-08-01T14:04:36.126Z,26.65
2022-08-01T14:07:09.557Z,26.72
2022-08-01T14:09:44.912Z,26.69
2022-08-01T14:12:24.144Z,26.80
2022-08-01T14:14:50.366Z,26.84
2022-08-01T14:17:16.585Z,26.93
2022-08-01T14:19:46.227Z,27.13
2022-08-01T14:22:12.693Z,27.20
2022-08-01T14:24:39.043Z,27.23
2022-08-01T14:27:07.284Z,27.26
2022-08-01T14:29:54.803Z,27.41
2022-08-01T14:32:19.736Z,27.57
2022-08-01T14:34:54.917Z,27.61
2022-08-01T14:37:21.216Z,27.50
2022-08-01T14:39:54.480Z,27.24
2022-08-01T14:42:20.973Z,26.86
2022-08-01T14:44:50.039Z,26.61
2022-08-01T14:47:21.785Z,26.53
2022-08-01T14:49:48.698Z,26.44
2022-08-01T14:52:15.063Z,26.34
2022-08-01T14:54:41.279Z,26.22
2022-08-01T14:57:07.530Z,26.11
2022-08-01T14:59:33.726Z,26.14
2022-08-01T15:01:59.944Z,26.09
2022-08-01T15:04:26.167Z,26.09
2022-08-01T15:06:52.404Z,26.10
2022-08-01T15:09:18.640Z,26.08
2022-08-01T15:11:44.842Z,26.05
2022-08-01T15:14:11.089Z,26.05
2022-08-01T15:16:37.309Z,26.03
2022-08-01T15:19:03.511Z,26.09
2022-08-01T15:21:41.312Z,26.23
2022-08-01T15:24:08.309Z,26.35
2022-08-01T15:26:34.543Z,26.48
2022-08-01T15:29:00.724Z,26.54
2022-08-01T15:31:26.959Z,26.61
2022-08-01T15:33:54.101Z,26.60
2022-08-01T15:36:25.565Z,26.58
2022-08-01T15:38:52.085Z,26.57
2022-08-01T15:41:18.466Z,26.50
2022-08-01T15:43:45.073Z,26.45
2022-08-01T15:46:11.823Z,26.40
2022-08-01T15:48:40.117Z,26.34
2022-08-01T15:51:06.586Z,26.30
2022-08-01T15:53:32.913Z,26.21
2022-08-01T15:55:59.172Z,26.18
2022-08-01T15:58:25.487Z,26.18
2022-08-01T16:00:51.718Z,26.18
2022-08-01T16:03:17.965Z,26.13
2022-08-01T16:05:44.465Z,26.16
2022-08-01T16:08:10.857Z,26.25
2022-08-01T16:10:37.123Z,26.28
2022-08-01T16:13:07.140Z,26.20
2022-08-01T16:15:37.113Z,26.10
2022-08-01T16:18:03.849Z,26.04
2022-08-01T16:20:30.073Z,26.03
2022-08-01T16:22:56.313Z,25.99
2022-08-01T16:25:22.588Z,25.96
2022-08-01T16:27:48.855Z,25.93
2022-08-01T16:30:15.205Z,25.95
2022-08-01T16:32:47.069Z,25.94
2022-08-01T16:35:20.427Z,25.87
2022-08-01T16:37:46.675Z,25.82
2022-08-01T16:40:13.268Z,25.84
2022-08-01T16:42:39.566Z,25.90
2022-08-01T16:45:08.790Z,25.98
2022-08-01T16:47:40.260Z,26.01
2022-08-01T16:50:06.523Z,25.97
2022-08-01T16:52:32.760Z,25.98
2022-08-01T16:54:58.971Z,25.99
2022-08-01T16:57:25.244Z,25.93
2022-08-01T16:59:51.507Z,25.86
2022-08-01T17:02:17.828Z,25.83
2022-08-01T17:04:44.102Z,25.83
2022-08-01T17:07:10.726Z,25.81
2022-08-01T17:09:41.327Z,25.79
2022-08-01T17:12:09.494Z,25.82
2022-08-01T17:14:35.754Z,25.80
2022-08-01T17:17:01.982Z,25.78
2022-08-01T17:19:32.956Z,25.72
2022-08-01T17:21:59.640Z,25.67
2022-08-01T17:24:25.942Z,25.60
2022-08-01T17:26:52.306Z,25.53
2022-08-01T17:29:18.567Z,25.48
2022-08-01T17:31:44.843Z,25.44
2022-08-01T17:34:11.124Z,25.43
2022-08-01T17:36:37.367Z,25.43
2022-08-01T17:39:03.587Z,25.44
2022-08-01T17:41:29.888Z,25.43
2022-08-01T17:43:56.115Z,25.36
2022-08-01T17:46:22.427Z,25.31
2022-08-01T17:48:48.843Z,25.30
2022-08-01T17:51:19.347Z,25.26
2022-08-01T17:53:55.677Z,25.26
2022-08-01T17:56:23.404Z,25.26
2022-08-01T17:58:52.134Z,25.18
2022-08-01T18:01:18.824Z,25.15
2022-08-01T18:03:45.178Z,25.11
2022-08-01T18:06:11.420Z,25.06
2022-08-01T18:08:37.676Z,25.05
2022-08-01T18:11:03.920Z,25.01
2022-08-01T18:13:30.188Z,25.00
2022-08-01T18:15:56.450Z,24.97
2022-08-01T18:18:33.212Z,24.94
2022-08-01T18:21:00.373Z,24.91
2022-08-01T18:23:26.674Z,24.89
2022-08-01T18:25:52.949Z,24.84
2022-08-01T18:28:31.169Z,24.78
2022-08-01T18:30:58.865Z,24.67
2022-08-01T18:33:25.143Z,24.59
2022-08-01T18:35:52.072Z,24.54
2022-08-01T18:38:19.873Z,24.48
2022-08-01T18:40:46.334Z,24.42
2022-08-01T18:43:12.545Z,24.39
2022-08-01T18:45:42.755Z,24.32
2022-08-01T18:48:09.429Z,24.25
2022-08-01T18:50:35.643Z,24.21
2022-08-01T18:53:01.875Z,24.19
2022-08-01T18:55:28.195Z,24.16
2022-08-01T18:57:54.419Z,24.09
2022-08-01T19:00:20.702Z,24.03
2022-08-01T19:02:47.019Z,23.98
2022-08-01T19:05:13.291Z,23.91
2022-08-01T19:08:06.877Z,23.85
2022-08-01T19:10:25.812Z,23.81
2022-08-01T19:12:52.067Z,23.77
2022-08-01T19:15:18.253Z,23.74
2022-08-01T19:17:44.586Z,23.69
2022-08-01T19:20:10.814Z,23.63
2022-08-01T19:22:37.088Z,23.56
2022-08-01T19:25:03.385Z,23.50
2022-08-01T19:27:29.660Z,23.46
2022-08-01T19:29:55.927Z,23.40
2022-08-01T19:32:22.171Z,23.33
2022-08-01T19:34:48.575Z,23.30
2022-08-01T19:37:14.847Z,23.25
2022-08-01T19:39:41.145Z,23.22
2022-08-01T19:42:07.394Z,23.19
2022-08-01T19:44:33.651Z,23.15
2022-08-01T19:46:59.892Z,23.12
2022-08-01T19:49:26.192Z,23.07
2022-08-01T19:51:52.690Z,23.05
2022-08-01T19:54:18.939Z,23.04
2022-08-01T19:56:45.190Z,23.03
2022-08-01T19:59:11.371Z,23.02
2022-08-01T20:01:37.637Z,23.00
2022-08-01T20:04:03.942Z,22.98
2022-08-01T20:06:30.193Z,22.95
2022-08-01T20:08:56.391Z,22.93
2022-08-01T20:11:22.595Z,22.88
2022-08-01T20:13:48.877Z,22.86
2022-08-01T20:16:15.117Z,22.84
2022-08-01T20:18:41.301Z,22.81
2022-08-01T20:21:07.518Z,22.80
2022-08-01T20:23:33.758Z,22.76
2022-08-01T20:25:59.951Z,22.74
2022-08-01T20:28:26.168Z,22.74
2022-08-01T20:30:52.366Z,22.71
2022-08-01T20:33:18.658Z,22.69
2022-08-01T20:35:52.933Z,22.67
2022-08-01T20:38:20.169Z,22.67
2022-08-01T20:40:49.224Z,22.66
2022-08-01T20:43:15.456Z,22.64
2022-08-01T20:45:41.678Z,22.63
2022-08-01T20:48:07.865Z,22.61
2022-08-01T20:50:53.954Z,22.60
2022-08-01T20:53:20.265Z,22.57
2022-08-01T20:55:46.490Z,22.54
2022-08-01T20:58:12.712Z,22.51
2022-08-01T21:00:38.943Z,22.47
2022-08-01T21:03:05.206Z,22.42
2022-08-01T21:05:31.413Z,22.39
2022-08-01T21:07:57.612Z,22.34
2022-08-01T21:10:23.833Z,22.29
2022-08-01T21:12:50.070Z,22.23
2022-08-01T21:15:16.277Z,22.17
2022-08-01T21:17:42.499Z,22.09
2022-08-01T21:20:08.718Z,22.03
2022-08-01T21:22:34.924Z,21.98
2022-08-01T21:25:01.142Z,21.93
2022-08-01T21:27:33.382Z,21.86
2022-08-01T21:30:00.333Z,21.79
2022-08-01T21:32:26.512Z,21.75
2022-08-01T21:34:55.629Z,21.70
2022-08-01T21:37:21.854Z,21.64
2022-08-01T21:39:48.031Z,21.59
2022-08-01T21:42:18.701Z,21.54
2022-08-01T21:44:45.441Z,21.48
2022-08-01T21:47:12.177Z,21.45
2022-08-01T21:49:38.437Z,21.42
2022-08-01T21:52:08.852Z,21.39
2022-08-01T21:54:35.289Z,21.36
2022-08-01T21:57:01.515Z,21.36
2022-08-01T21:59:27.725Z,21.32
2022-08-01T22:01:53.990Z,21.26
2022-08-01T22:04:20.258Z,21.22
2022-08-01T22:06:46.499Z,21.17
2022-08-01T22:09:12.698Z,21.14
2022-08-01T22:11:39.016Z,21.13
2022-08-01T22:14:25.204Z,21.11
2022-08-01T22:16:51.444Z,21.09
2022-08-01T22:19:35.118Z,21.05
2022-08-01T22:22:03.968Z,21.01
2022-08-01T22:24:50.189Z,20.98
2022-08-01T22:27:16.403Z,20.96
2022-08-01T22:29:42.589Z,20.96
2022-08-01T22:32:09.004Z,20.95
2022-08-01T22:34:35.450Z,20.97
2022-08-01T22:37:01.827Z,20.97
2022-08-01T22:39:39.735Z,20.95
2022-08-01T22:42:05.958Z,20.95
2022-08-01T22:44:32.136Z,20.92
2022-08-01T22:46:58.537Z,20.90
2022-08-01T22:49:24.804Z,20.86
2022-08-01T22:51:55.675Z,20.83
2022-08-01T22:54:22.182Z,20.82
2022-08-01T22:56:48.391Z,20.79
2022-08-01T22:59:14.596Z,20.79
2022-08-01T23:01:40.916Z,20.74
2022-08-01T23:04:13.896Z,20.72
2022-08-01T23:06:40.119Z,20.72
2022-08-01T23:09:06.340Z,20.69
2022-08-01T23:11:32.537Z,20.67
2022-08-01T23:13:58.759Z,20.62
2022-08-01T23:16:25.014Z,20.55
2022-08-01T23:18:51.256Z,20.52
2022-08-01T23:21:17.454Z,20.47
2022-08-01T23:23:43.666Z,20.43
2022-08-01T23:26:09.864Z,20.40
2022-08-01T23:28:36.103Z,20.38
2022-08-01T23:31:02.262Z,20.34
2022-08-01T23:33:28.453Z,20.34
2022-08-01T23:35:54.659Z,20.31
2022-08-01T23:38:20.875Z,20.29
2022-08-01T23:40:47.064Z,20.30
2022-08-01T23:43:16.879Z,20.26
2022-08-01T23:46:04.590Z,20.23
2022-08-01T23:48:30.060Z,20.21
2022-08-01T23:50:56.298Z,20.18
2022-08-01T23:53:23.780Z,20.17
2022-08-01T23:55:49.974Z,20.16
2022-08-01T23:58:17.946Z,20.16
